createdAt,value
2023-06-30T00:01:49.937Z,95031.38
2023-06-30T00:05:34.824Z,95033.03
2023-06-30T00:09:17.694Z,95023.44
2023-06-30T00:13:00.413Z,95015.41
2023-06-30T00:16:43.175Z,95007.44
2023-06-30T00:20:25.861Z,95005.28
2023-06-30T00:24:10.046Z,95000.75
2023-06-30T00:27:52.797Z,94989.81
2023-06-30T00:31:40.763Z,94980.25
2023-06-30T00:35:23.569Z,94987.75
2023-06-30T00:39:06.334Z,94975.44
2023-06-30T00:42:50.440Z,94986.16
2023-06-30T00:46:33.276Z,94990.69
2023-06-30T00:50:16.205Z,94987.81
2023-06-30T00:53:59.102Z,94983.28
2023-06-30T00:57:41.768Z,94977.19
2023-06-30T01:01:31.390Z,94975.03
2023-06-30T01:05:19.722Z,94976.09
2023-06-30T01:09:05.134Z,94977.19
2023-06-30T01:12:48.136Z,94977.25
2023-06-30T01:16:32.661Z,94976.22
2023-06-30T01:20:17.088Z,94969.28
2023-06-30T01:24:04.059Z,94967.69
2023-06-30T01:27:47.066Z,94967.16
2023-06-30T01:31:32.730Z,94965.59
2023-06-30T01:35:16.841Z,94954.94
2023-06-30T01:38:59.513Z,94946.94
2023-06-30T01:42:42.394Z,94945.34
2023-06-30T01:46:25.160Z,94959.50
2023-06-30T01:50:08.607Z,94959.78
2023-06-30T01:53:52.733Z,94956.59
2023-06-30T01:57:35.594Z,94958.72
2023-06-30T02:01:18.330Z,94959.53
2023-06-30T02:05:01.080Z,94941.66
2023-06-30T02:08:43.881Z,94941.69
2023-06-30T02:12:30.894Z,94940.13
2023-06-30T02:16:13.680Z,94939.88
2023-06-30T02:19:56.397Z,94942.81
2023-06-30T02:23:39.065Z,94949.47
2023-06-30T02:27:21.834Z,94953.75
2023-06-30T02:31:06.186Z,94952.66
2023-06-30T02:34:48.920Z,94936.66
2023-06-30T02:38:31.758Z,94943.88
2023-06-30T02:42:14.477Z,94940.16
2023-06-30T02:45:57.205Z,94938.56
2023-06-30T02:49:41.304Z,94936.41
2023-06-30T02:53:24.012Z,94931.06
2023-06-30T02:57:06.985Z,94929.47
2023-06-30T03:00:50.418Z,94935.09
2023-06-30T03:04:33.309Z,94939.88
2023-06-30T03:08:17.425Z,94939.09
2023-06-30T03:12:00.125Z,94942.28
2023-06-30T03:15:43.147Z,94936.41
2023-06-30T03:19:26.172Z,94928.13
2023-06-30T03:23:08.856Z,94921.72
2023-06-30T03:26:52.915Z,94910.25
2023-06-30T03:30:35.628Z,94921.19
2023-06-30T03:34:18.359Z,94924.41
2023-06-30T03:38:01.045Z,94931.34
2023-06-30T03:41:43.812Z,94931.88
2023-06-30T03:45:27.890Z,94930.81
2023-06-30T03:49:10.605Z,94936.66
2023-06-30T03:52:53.292Z,94946.00
2023-06-30T03:56:35.944Z,94940.66
2023-06-30T04:00:19.386Z,94942.53
2023-06-30T04:04:04.048Z,94935.06
2023-06-30T04:07:47.148Z,94941.75
2023-06-30T04:11:29.904Z,94938.28
2023-06-30T04:15:12.758Z,94939.59
2023-06-30T04:18:56.104Z,94933.22
2023-06-30T04:22:40.636Z,94916.38
2023-06-30T04:26:23.341Z,94918.81
2023-06-30T04:30:07.587Z,94907.09
2023-06-30T04:33:50.612Z,94894.53
2023-06-30T04:37:33.421Z,94886.28
2023-06-30T04:41:17.794Z,94888.94
2023-06-30T04:45:00.508Z,94872.69
2023-06-30T04:48:43.304Z,94885.75
2023-06-30T04:52:26.024Z,94874.28
2023-06-30T04:56:08.737Z,94866.03
2023-06-30T04:59:53.135Z,94874.56
2023-06-30T05:03:35.926Z,94882.31
2023-06-30T05:07:18.778Z,94873.50
2023-06-30T05:11:01.819Z,94880.16
2023-06-30T05:14:44.626Z,94894.81
2023-06-30T05:18:28.726Z,94887.88
2023-06-30T05:22:11.433Z,94897.75
2023-06-30T05:25:54.166Z,94900.66
2023-06-30T05:29:36.910Z,94900.38
2023-06-30T05:33:19.635Z,94894.78
2023-06-30T05:37:06.673Z,94900.66
2023-06-30T05:40:49.495Z,94887.34
2023-06-30T05:44:32.331Z,94893.19
2023-06-30T05:48:15.118Z,94882.25
2023-06-30T05:51:58.837Z,94894.25
2023-06-30T05:55:43.145Z,94897.44
2023-06-30T05:59:29.084Z,94902.25
2023-06-30T06:03:12.015Z,94905.97
2023-06-30T06:06:54.928Z,94909.16
2023-06-30T06:10:37.674Z,94917.69
2023-06-30T06:14:21.986Z,94923.03
2023-06-30T06:18:04.962Z,94933.69
2023-06-30T06:21:47.752Z,94933.69
2023-06-30T06:25:30.461Z,94938.50
2023-06-30T06:29:15.591Z,94944.09
2023-06-30T06:32:59.758Z,94937.94
2023-06-30T06:36:42.523Z,94944.34
2023-06-30T06:40:25.466Z,94941.66
2023-06-30T06:44:08.311Z,94939.50
2023-06-30T06:48:24.048Z,94944.84
2023-06-30T06:52:07.343Z,94946.72
2023-06-30T06:55:50.770Z,94955.00
2023-06-30T06:59:33.456Z,94951.81
2023-06-30T07:03:16.580Z,94941.69
2023-06-30T07:07:00.736Z,94947.31
2023-06-30T07:10:44.692Z,94945.47
2023-06-30T07:14:27.406Z,94943.34
2023-06-30T07:18:10.272Z,94927.59
2023-06-30T07:21:53.305Z,94932.94
2023-06-30T07:25:37.388Z,94924.16
2023-06-30T07:29:20.066Z,94935.88
2023-06-30T07:33:02.797Z,94938.25
2023-06-30T07:36:45.528Z,94945.22
2023-06-30T07:40:32.668Z,94946.00
2023-06-30T07:44:22.446Z,94957.75
2023-06-30T07:48:05.947Z,94956.16
2023-06-30T07:51:48.850Z,94958.00
2023-06-30T07:55:33.757Z,94950.28
2023-06-30T07:59:16.523Z,94950.00
2023-06-30T08:03:00.837Z,94954.78
2023-06-30T08:06:43.690Z,94958.25
2023-06-30T08:10:26.424Z,94961.44
2023-06-30T08:14:09.144Z,94958.25
2023-06-30T08:17:56.888Z,94957.13
2023-06-30T08:21:41.605Z,94973.13
2023-06-30T08:25:24.987Z,94966.66
2023-06-30T08:29:07.711Z,94975.44
2023-06-30T08:32:50.497Z,94965.00
2023-06-30T08:36:33.956Z,94970.34
2023-06-30T08:40:21.351Z,94971.66
2023-06-30T08:44:04.740Z,94971.31
2023-06-30T08:47:47.651Z,94966.47
2023-06-30T08:51:30.937Z,94976.09
2023-06-30T08:55:13.832Z,94970.19
2023-06-30T08:58:57.907Z,94974.16
2023-06-30T09:02:41.223Z,94978.09
2023-06-30T09:06:24.184Z,94979.19
2023-06-30T09:10:10.280Z,94975.44
2023-06-30T09:13:54.239Z,94969.81
2023-06-30T09:17:38.377Z,94970.50
2023-06-30T09:21:24.269Z,94962.09
2023-06-30T09:25:42.029Z,94966.06
2023-06-30T09:29:25.828Z,94965.69
2023-06-30T09:33:10.370Z,94964.13
2023-06-30T09:36:53.990Z,94961.44
2023-06-30T09:40:36.736Z,94950.63
2023-06-30T09:44:21.579Z,94961.69
2023-06-30T09:48:07.797Z,94969.47
2023-06-30T09:51:52.180Z,94957.63
2023-06-30T09:55:34.871Z,94956.91
2023-06-30T09:59:18.238Z,94959.53
2023-06-30T10:03:05.220Z,94955.09
2023-06-30T10:06:49.133Z,94956.47
2023-06-30T10:10:33.285Z,94951.28
2023-06-30T10:14:16.915Z,94949.97
2023-06-30T10:18:00.577Z,94960.75
2023-06-30T10:21:43.347Z,94961.78
2023-06-30T10:25:27.285Z,94958.94
2023-06-30T10:29:11.464Z,94954.75
2023-06-30T10:32:55.363Z,94964.41
2023-06-30T10:36:39.097Z,94950.63
2023-06-30T10:40:30.325Z,94957.06
2023-06-30T10:44:14.442Z,94965.94
2023-06-30T10:47:57.388Z,94978.66
2023-06-30T10:51:40.220Z,94974.00
2023-06-30T10:55:23.976Z,94972.13
2023-06-30T10:59:07.046Z,94961.47
2023-06-30T11:02:52.009Z,94966.28
2023-06-30T11:06:37.493Z,94958.81
2023-06-30T11:10:38.885Z,94960.41
2023-06-30T11:14:34.278Z,94944.94
2023-06-30T11:18:21.952Z,94946.53
2023-06-30T11:22:23.412Z,94930.00
2023-06-30T11:26:14.257Z,94938.69
2023-06-30T11:30:00.360Z,94937.28
2023-06-30T11:33:45.471Z,94933.94
2023-06-30T11:37:28.651Z,94931.75
2023-06-30T11:41:11.447Z,94928.97
2023-06-30T11:44:54.159Z,94914.91
2023-06-30T11:48:41.204Z,94916.41
2023-06-30T11:52:25.274Z,94918.19
2023-06-30T11:56:08.091Z,94902.59
2023-06-30T11:59:50.798Z,94888.25
2023-06-30T12:03:33.621Z,94898.13
2023-06-30T12:07:16.974Z,94886.00
2023-06-30T12:11:02.499Z,94873.84
2023-06-30T12:14:46.011Z,94880.69
2023-06-30T12:18:37.882Z,94871.28
2023-06-30T12:22:27.105Z,94866.75
2023-06-30T12:26:11.593Z,94872.66
2023-06-30T12:29:54.586Z,94872.34
2023-06-30T12:33:38.381Z,94858.47
2023-06-30T12:37:21.298Z,94860.84
2023-06-30T12:41:04.498Z,94860.38
2023-06-30T12:44:48.595Z,94866.78
2023-06-30T12:48:31.835Z,94862.66
2023-06-30T12:52:16.754Z,94852.50
2023-06-30T12:55:59.560Z,94855.56
2023-06-30T12:59:43.869Z,94843.16
2023-06-30T13:03:29.401Z,94842.22
2023-06-30T13:07:12.187Z,94845.19
2023-06-30T13:10:56.222Z,94836.44
2023-06-30T13:14:38.953Z,94828.97
2023-06-30T13:18:21.728Z,94816.94
2023-06-30T13:22:06.082Z,94824.50
2023-06-30T13:25:49.627Z,94820.25
2023-06-30T13:29:33.037Z,94831.25
2023-06-30T13:33:15.883Z,94831.09
2023-06-30T13:37:01.672Z,94833.28
2023-06-30T13:40:46.102Z,94826.75
2023-06-30T13:44:31.040Z,94820.44
2023-06-30T13:48:14.037Z,94820.03
2023-06-30T13:51:56.915Z,94816.59
2023-06-30T13:55:39.691Z,94815.97
2023-06-30T13:59:23.836Z,94833.19
2023-06-30T14:03:06.656Z,94827.59
2023-06-30T14:06:49.438Z,94845.66
2023-06-30T14:10:32.458Z,94837.00
2023-06-30T14:14:15.391Z,94823.78
2023-06-30T14:17:59.578Z,94828.75
2023-06-30T14:21:42.647Z,94831.41
2023-06-30T14:25:26.232Z,94839.78
2023-06-30T14:29:08.911Z,94836.88
2023-06-30T14:32:51.686Z,94844.22
2023-06-30T14:36:35.859Z,94838.88
2023-06-30T14:40:19.483Z,94841.66
2023-06-30T14:44:02.213Z,94857.25
2023-06-30T14:47:44.951Z,94854.16
2023-06-30T14:51:27.686Z,94836.03
2023-06-30T14:55:12.084Z,94832.72
2023-06-30T14:58:56.087Z,94830.44
2023-06-30T15:02:38.971Z,94836.16
2023-06-30T15:06:21.668Z,94824.28
2023-06-30T15:10:04.915Z,94826.38
2023-06-30T15:13:48.960Z,94823.63
2023-06-30T15:17:32.057Z,94819.31
2023-06-30T15:21:14.838Z,94809.69
2023-06-30T15:24:58.070Z,94804.88
2023-06-30T15:28:40.765Z,94785.69
2023-06-30T15:32:24.977Z,94780.84
2023-06-30T15:36:07.666Z,94792.63
2023-06-30T15:39:50.398Z,94781.47
2023-06-30T15:43:33.153Z,94785.50
2023-06-30T15:47:15.927Z,94789.19
2023-06-30T15:50:59.986Z,94784.13
2023-06-30T15:54:42.714Z,94781.97
2023-06-30T15:58:25.595Z,94773.50
2023-06-30T16:02:08.336Z,94767.66
2023-06-30T16:05:51.316Z,94776.19
2023-06-30T16:09:35.413Z,94766.38
2023-06-30T16:13:18.156Z,94767.25
2023-06-30T16:17:03.104Z,94769.97
2023-06-30T16:20:45.949Z,94766.22
2023-06-30T16:24:28.615Z,94770.53
2023-06-30T16:28:12.757Z,94777.56
2023-06-30T16:31:55.656Z,94785.03
2023-06-30T16:35:38.424Z,94780.00
2023-06-30T16:39:21.097Z,94777.34
2023-06-30T16:43:03.785Z,94779.19
2023-06-30T16:46:47.873Z,94788.28
2023-06-30T16:50:30.637Z,94794.16
2023-06-30T16:54:13.326Z,94779.78
2023-06-30T16:57:56.048Z,94801.22
2023-06-30T17:01:41.761Z,94788.75
2023-06-30T17:05:26.289Z,94791.69
2023-06-30T17:09:09.046Z,94788.19
2023-06-30T17:12:51.710Z,94791.63
2023-06-30T17:16:34.522Z,94782.78
2023-06-30T17:20:17.416Z,94780.91
2023-06-30T17:24:01.591Z,94799.31
2023-06-30T17:27:44.376Z,94798.50
2023-06-30T17:31:27.240Z,94799.56
2023-06-30T17:35:10.531Z,94791.00
2023-06-30T17:38:55.087Z,94808.09
2023-06-30T17:42:39.162Z,94793.66
2023-06-30T17:46:21.924Z,94789.38
2023-06-30T17:50:04.992Z,94803.81
2023-06-30T17:53:47.721Z,94800.09
2023-06-30T17:57:30.428Z,94801.19
2023-06-30T18:01:14.521Z,94800.63
2023-06-30T18:04:58.015Z,94817.44
2023-06-30T18:08:40.881Z,94804.91
2023-06-30T18:12:23.585Z,94803.59
2023-06-30T18:16:06.644Z,94796.47
2023-06-30T18:19:50.972Z,94799.75
2023-06-30T18:23:33.800Z,94804.63
2023-06-30T18:27:16.492Z,94809.44
2023-06-30T18:30:59.165Z,94814.25
2023-06-30T18:34:43.521Z,94821.69
2023-06-30T18:38:27.576Z,94822.78
2023-06-30T18:42:13.694Z,94830.81
2023-06-30T18:45:57.042Z,94829.50
2023-06-30T18:49:39.747Z,94828.97
2023-06-30T18:53:24.248Z,94840.44
2023-06-30T18:57:08.725Z,94839.34
2023-06-30T19:00:51.438Z,94835.09
2023-06-30T19:04:34.248Z,94834.56
2023-06-30T19:08:17.064Z,94840.94
2023-06-30T19:12:00.035Z,94854.53
2023-06-30T19:15:46.246Z,94853.50
2023-06-30T19:19:34.825Z,94861.75
2023-06-30T19:23:18.757Z,94856.44
2023-06-30T19:27:03.363Z,94862.28
2023-06-30T19:30:47.765Z,94866.03
2023-06-30T19:34:30.489Z,94871.88
2023-06-30T19:38:13.303Z,94867.63
2023-06-30T19:41:57.566Z,94874.84
2023-06-30T19:45:43.168Z,94877.25
2023-06-30T19:49:27.246Z,94872.94
2023-06-30T19:53:10.022Z,94879.63
2023-06-30T19:56:54.436Z,94874.56
2023-06-30T20:00:37.221Z,94876.16
2023-06-30T20:04:19.988Z,94873.22
2023-06-30T20:08:04.384Z,94872.97
2023-06-30T20:11:47.127Z,94877.75
2023-06-30T20:15:29.918Z,94881.75
2023-06-30T20:19:12.599Z,94875.63
2023-06-30T20:22:55.398Z,94876.97
2023-06-30T20:26:39.674Z,94872.97
2023-06-30T20:30:22.525Z,94876.69
2023-06-30T20:34:05.257Z,94871.34
2023-06-30T20:37:48.075Z,94870.03
2023-06-30T20:41:31.075Z,94867.38
2023-06-30T20:45:15.286Z,94870.81
2023-06-30T20:48:57.996Z,94870.81
2023-06-30T20:52:43.144Z,94890.50
2023-06-30T20:56:25.827Z,94888.81
2023-06-30T21:00:09.998Z,94889.34
2023-06-30T21:03:55.080Z,94896.00
2023-06-30T21:07:37.846Z,94889.88
2023-06-30T21:11:20.512Z,94896.28
2023-06-30T21:15:03.590Z,94900.53
2023-06-30T21:18:46.254Z,94918.63
2023-06-30T21:22:30.346Z,94917.47
2023-06-30T21:26:13.345Z,94925.34
2023-06-30T21:29:56.097Z,94913.03
2023-06-30T21:33:38.854Z,94920.47
2023-06-30T21:37:21.617Z,94919.63
2023-06-30T21:41:05.805Z,94911.91
2023-06-30T21:44:48.517Z,94913.50
2023-06-30T21:48:31.352Z,94900.75
2023-06-30T21:52:14.096Z,94905.06
2023-06-30T21:55:58.085Z,94905.09
2023-06-30T21:59:42.252Z,94907.78
2023-06-30T22:03:25.250Z,94917.88
2023-06-30T22:07:08.035Z,94911.50
2023-06-30T22:10:50.929Z,94908.81
2023-06-30T22:14:33.762Z,94909.78
2023-06-30T22:18:17.882Z,94912.41
2023-06-30T22:22:00.674Z,94912.94
2023-06-30T22:25:43.428Z,94907.06
2023-06-30T22:29:26.223Z,94900.16
2023-06-30T22:33:09.231Z,94903.91
2023-06-30T22:36:53.322Z,94900.97
2023-06-30T22:40:36.000Z,94906.56
2023-06-30T22:44:18.725Z,94910.81
2023-06-30T22:48:01.485Z,94902.03
2023-06-30T22:51:44.241Z,94903.91
2023-06-30T22:55:28.352Z,94906.56
2023-06-30T22:59:14.124Z,94893.03
2023-06-30T23:03:00.523Z,94896.53
2023-06-30T23:06:43.602Z,94893.34
2023-06-30T23:10:27.794Z,94893.03
2023-06-30T23:14:10.558Z,94893.03
2023-06-30T23:17:53.461Z,94887.41
2023-06-30T23:21:37.211Z,94893.25
2023-06-30T23:25:22.049Z,94892.97
2023-06-30T23:29:07.129Z,94892.69
2023-06-30T23:32:49.894Z,94890.81
2023-06-30T23:36:36.365Z,94893.78
2023-06-30T23:40:19.236Z,94901.22
2023-06-30T23:44:02.441Z,94890.81
2023-06-30T23:47:47.156Z,94892.16
2023-06-30T23:51:29.926Z,94882.06
2023-06-30T23:55:13.016Z,94882.06
2023-06-30T23:58:55.816Z,94878.56
